Time;durP1;ratioP1;P1;durP2;ratioP2;P2;SDS_P1;SDS_P2;PMS_P1;PMS_P2;Temp;Humidity;BMP_temperature;BMP_pressure;BME280_temperature;BME280_humidity;BME280_pressure;Samples;Min_cycle;Max_cycle;Signal;HPM_P1;HPM_P2
2022/10/07 00:02:05;;;;;;;4.00;3.80;;;;;;;6.64;100.00;102400.84;6008864;23;20030;-75
2022/10/07 00:04:33;;;;;;;3.70;3.55;;;;;;;6.87;100.00;102438.00;5982759;23;20034;-74
2022/10/07 00:06:59;;;;;;;4.10;3.90;;;;;;;5.80;100.00;102272.81;5985413;23;20031;-74
2022/10/07 00:09:25;;;;;;;4.95;4.60;;;;;;;5.76;100.00;102273.72;5996397;23;20023;-75
2022/10/07 00:11:52;;;;;;;4.40;4.18;;;;;;;6.57;100.00;102428.69;5998636;23;20028;-74
2022/10/07 00:14:18;;;;;;;4.05;3.85;;;;;;;6.23;100.00;102362.88;5996964;23;20011;-74
2022/10/07 00:16:44;;;;;;;4.97;4.57;;;;;;;6.15;100.00;102360.31;5991448;23;20620;-74
2022/10/07 00:19:12;;;;;;;4.32;4.00;;;;;;;6.67;100.00;102424.28;5999620;23;20019;-74
2022/10/07 00:21:39;;;;;;;4.13;3.92;;;;;;;6.52;100.00;102414.84;5997444;23;20015;-75
2022/10/07 00:24:06;;;;;;;4.10;3.90;;;;;;;4.11;100.00;102005.78;5966663;23;20522;-74
2022/10/07 00:26:34;;;;;;;4.15;3.95;;;;;;;6.56;100.00;102420.00;5992250;23;20039;-74
2022/10/07 00:29:02;;;;;;;4.10;3.90;;;;;;;6.04;100.00;102342.16;5972949;23;20035;-74
2022/10/07 00:31:32;;;;;;;4.25;4.05;;;;;;;6.47;100.00;102417.44;5994040;23;20102;-73
2022/10/07 00:33:59;;;;;;;5.60;4.95;;;;;;;6.19;100.00;102372.47;5990498;23;20039;-74
2022/10/07 00:36:28;;;;;;;4.22;4.03;;;;;;;6.44;100.00;102403.59;5994882;23;20086;-74
2022/10/07 00:38:57;;;;;;;5.35;3.92;;;;;;;4.82;100.00;102138.06;5996694;23;20032;-72
2022/10/07 00:41:35;;;;;;;3.97;3.78;;;;;;;6.15;100.00;102381.19;6001458;23;20031;-73
2022/10/07 00:44:34;;;;;;;3.97;3.78;;;;;;;6.36;100.00;102401.91;6000591;23;20023;-74
2022/10/07 00:47:23;;;;;;;3.88;3.67;;;;;;;2.74;100.00;101796.88;5968361;23;20102;-74
2022/10/07 00:49:55;;;;;;;3.83;3.63;;;;;;;6.30;100.00;102406.31;5976558;23;20016;-74
2022/10/07 00:52:25;;;;;;;3.77;3.63;;;;;;;6.34;100.00;102400.19;5963145;23;20031;-75
2022/10/07 00:54:54;;;;;;;4.07;3.88;;;;;;;5.78;100.00;102298.00;6001995;23;20344;-74
2022/10/07 00:57:23;;;;;;;4.43;4.22;;;;;;;5.71;100.00;102298.91;5973436;23;20099;-74
2022/10/07 00:59:50;;;;;;;4.68;4.15;;;;;;;6.01;100.00;102341.31;6001137;23;20039;-73
2022/10/07 01:02:17;;;;;;;3.85;3.65;;;;;;;5.96;100.00;102328.31;5980528;23;20036;-75
2022/10/07 01:04:45;;;;;;;5.00;4.53;;;;;;;5.64;100.00;102263.38;6000183;23;20504;-75
2022/10/07 01:07:11;;;;;;;4.95;4.55;;;;;;;6.28;100.00;102374.16;5997747;23;20629;-74
2022/10/07 01:09:37;;;;;;;5.63;4.93;;;;;;;6.00;100.00;102330.03;5989380;23;20454;-75
2022/10/07 01:12:18;;;;;;;3.97;3.78;;;;;;;6.29;100.00;102375.88;6004803;23;20624;-74
2022/10/07 01:15:02;;;;;;;3.92;3.75;;;;;;;5.56;100.00;102251.25;5991680;23;20069;-74
2022/10/07 01:17:46;;;;;;;4.00;3.80;;;;;;;6.26;100.00;102362.88;5998826;23;20111;-74
2022/10/07 01:20:39;;;;;;;4.03;3.83;;;;;;;5.69;100.00;102345.84;5972528;23;20026;-74
2022/10/07 01:23:19;;;;;;;4.03;3.83;;;;;;;6.27;100.00;102355.03;6002529;23;20588;-75
2022/10/07 01:26:12;;;;;;;3.65;3.45;;;;;;;5.81;100.00;102282.34;5985187;23;20526;-74
2022/10/07 01:28:45;;;;;;;;;;;;;;;6.29;100.00;102352.41;6008750;23;20054;-74
2022/10/07 01:31:16;;;;;;;4.30;4.10;;;;;;;5.54;100.00;102231.31;6004435;23;20648;-75
2022/10/07 01:33:45;;;;;;;3.88;3.67;;;;;;;5.68;100.00;102250.31;5975723;23;20043;-75
2022/10/07 01:36:21;;;;;;;4.45;4.15;;;;;;;6.28;100.00;102345.47;6010070;23;20617;-75
2022/10/07 01:38:52;;;;;;;3.53;3.42;;;;;;;6.32;100.00;102336.75;5989325;23;20093;-75
2022/10/07 01:41:20;;;;;;;3.75;3.58;;;;;;;5.58;100.00;102220.00;6005018;23;20724;-75
2022/10/07 01:43:51;;;;;;;4.82;4.53;;;;;;;5.84;100.00;102256.28;5971961;23;20949;-75
2022/10/07 01:46:22;;;;;;;3.75;3.55;;;;;;;5.81;100.00;102261.50;5972684;23;20031;-75
2022/10/07 01:48:50;;;;;;;4.15;3.95;;;;;;;6.03;100.00;102292.66;6000907;23;20101;-75
2022/10/07 01:51:22;;;;;;;5.13;4.68;;;;;;;6.08;100.00;102303.91;5994290;23;20027;-75
2022/10/07 01:54:04;;;;;;;4.00;3.80;;;;;;;6.22;100.00;102314.25;6004394;23;20039;-75
2022/10/07 01:57:06;;;;;;;4.15;3.95;;;;;;;6.20;100.00;102314.25;6007319;23;20150;-75
2022/10/07 01:59:54;;;;;;;4.10;3.90;;;;;;;6.21;100.00;102304.69;5965618;23;20039;-75
2022/10/07 02:02:43;;;;;;;3.78;3.60;;;;;;;6.25;100.00;102304.63;6002103;23;20026;-75
2022/10/07 02:05:12;;;;;;;3.78;3.58;;;;;;;6.30;100.00;102296.78;6009528;23;20023;-75
2022/10/07 02:08:14;;;;;;;4.15;3.95;;;;;;;6.01;100.00;102252.72;6004348;23;20720;-75
2022/10/07 02:11:13;;;;;;;4.68;4.35;;;;;;;5.87;100.00;102214.56;6008549;23;20462;-74
2022/10/07 02:13:56;;;;;;;4.53;4.22;;;;;;;6.14;100.00;102256.97;6009926;23;20027;-74
2022/10/07 02:16:43;;;;;;;3.50;3.40;;;;;;;6.27;100.00;102279.41;5980717;23;20023;-74
2022/10/07 02:19:15;;;;;;;4.15;3.95;;;;;;;5.75;100.00;102192.09;6000288;23;20015;-75
2022/10/07 02:21:47;;;;;;;3.92;3.72;;;;;;;6.29;100.00;102266.38;6003364;23;20557;-74
2022/10/07 02:24:16;;;;;;;3.90;3.70;;;;;;;5.85;100.00;102205.88;6007641;23;20034;-73
2022/10/07 02:26:46;;;;;;;3.90;3.70;;;;;;;5.49;100.00;102124.59;5979041;23;20027;-74
2022/10/07 02:29:14;;;;;;;3.67;3.50;;;;;;;6.33;100.00;102270.69;6003881;23;20086;-74
2022/10/07 02:31:43;;;;;;;3.88;3.70;;;;;;;6.32;100.00;102263.75;5980256;23;20020;-74
2022/10/07 02:34:13;;;;;;;5.90;3.80;;;;;;;6.10;100.00;102224.84;6008851;23;20035;-74
2022/10/07 02:36:51;;;;;;;4.30;4.07;;;;;;;5.88;100.00;102174.63;5996836;23;20617;-74
2022/10/07 02:39:17;;;;;;;;;;;;;;;6.35;100.00;102251.56;5998584;23;20525;-74
2022/10/07 02:42:08;;;;;;;4.13;3.92;;;;;;;5.98;100.00;102186.72;6008339;23;19930;-74
2022/10/07 02:45:01;;;;;;;3.63;3.53;;;;;;;6.43;100.00;102246.22;5994682;23;20082;-74
2022/10/07 02:47:35;;;;;;;3.72;3.58;;;;;;;5.70;100.00;102113.13;5970751;23;20042;-74
2022/10/07 02:50:06;;;;;;;3.65;3.50;;;;;;;5.84;100.00;102151.22;5994790;23;20027;-74
2022/10/07 02:52:33;;;;;;;4.05;3.83;;;;;;;6.31;100.00;102226.34;6000236;23;20030;-74
2022/10/07 02:55:07;;;;;;;3.85;3.67;;;;;;;6.06;100.00;102177.97;5998056;23;20103;-74
2022/10/07 02:57:38;;;;;;;3.88;3.67;;;;;;;5.89;100.00;102163.31;5973941;23;20020;-74
2022/10/07 03:00:06;;;;;;;3.83;3.63;;;;;;;6.06;100.00;102184.03;5999970;23;20117;-74
2022/10/07 03:02:43;;;;;;;3.80;3.60;;;;;;;5.40;100.00;102072.59;5994634;23;20078;-74
2022/10/07 03:05:11;;;;;;;3.70;3.50;;;;;;;5.87;100.00;102166.81;5994247;23;20031;-74
2022/10/07 03:07:38;;;;;;;3.90;3.70;;;;;;;6.32;100.00;102228.09;5996023;23;20023;-76
2022/10/07 03:10:07;;;;;;;3.55;3.40;;;;;;;5.87;100.00;102141.59;6002923;23;20022;-73
2022/10/07 03:12:34;;;;;;;4.03;3.78;;;;;;;5.97;100.00;102152.84;5997030;23;20019;-73
2022/10/07 03:15:00;;;;;;;4.22;3.85;;;;;;;6.12;100.00;102183.13;5969174;23;20031;-74
2022/10/07 03:17:26;;;;;;;4.20;4.00;;;;;;;5.97;100.00;102163.25;5995308;23;20463;-74
2022/10/07 03:19:53;;;;;;;4.78;4.47;;;;;;;6.15;100.00;102186.56;5998628;23;20534;-74
2022/10/07 03:22:19;;;;;;;3.60;3.40;;;;;;;5.54;100.00;102075.94;6003217;23;20671;-74
2022/10/07 03:24:46;;;;;;;4.40;4.15;;;;;;;6.34;100.00;102199.41;5978142;23;20011;-74
2022/10/07 03:27:12;;;;;;;3.97;3.78;;;;;;;6.02;100.00;102139.78;5998594;23;20015;-74
2022/10/07 03:29:39;;;;;;;4.18;3.92;;;;;;;6.13;100.00;102143.13;6001809;23;20043;-74
2022/10/07 03:32:05;;;;;;;3.60;3.50;;;;;;;5.46;100.00;102051.72;5995079;23;20065;-75
2022/10/07 03:34:31;;;;;;;4.97;4.03;;;;;;;6.40;100.00;102201.94;6005933;23;20074;-74
2022/10/07 03:36:58;;;;;;;3.80;3.60;;;;;;;5.32;100.00;102031.00;5974782;23;20094;-74
2022/10/07 03:39:24;;;;;;;4.05;3.85;;;;;;;6.24;100.00;102177.78;6003562;23;20011;-74
2022/10/07 03:41:51;;;;;;;3.45;3.35;;;;;;;6.34;100.00;102195.06;5975958;23;21010;-74
2022/10/07 03:44:18;;;;;;;3.90;3.70;;;;;;;5.43;100.00;102046.50;5998329;23;20007;-74
2022/10/07 03:46:48;;;;;;;4.50;4.30;;;;;;;6.29;100.00;102194.22;5940208;23;20019;-75
2022/10/07 03:49:15;;;;;;;4.55;4.30;;;;;;;5.51;100.00;102064.69;6005398;23;20026;-75
2022/10/07 03:51:41;;;;;;;4.78;4.35;;;;;;;5.50;100.00;102089.84;5999023;23;20031;-74
2022/10/07 03:54:07;;;;;;;3.88;3.67;;;;;;;5.85;100.00;102147.72;6003579;23;20027;-74
2022/10/07 03:56:34;;;;;;;3.80;3.60;;;;;;;6.07;100.00;102190.97;5998506;23;20340;-75
2022/10/07 03:59:00;;;;;;;4.22;4.03;;;;;;;6.06;100.00;102186.66;6004768;23;20093;-74
2022/10/07 04:01:30;;;;;;;4.32;4.03;;;;;;;6.02;100.00;102179.75;5997064;23;20038;-74
2022/10/07 04:03:59;;;;;;;3.58;3.47;;;;;;;5.59;100.00;102123.66;5969605;23;20039;-74
2022/10/07 04:06:26;;;;;;;3.53;3.42;;;;;;;6.03;100.00;102178.00;5996585;23;20081;-74
2022/10/07 04:08:54;;;;;;;3.70;3.55;;;;;;;6.02;100.00;102174.53;6002932;23;20099;-74
2022/10/07 04:11:23;;;;;;;3.70;3.50;;;;;;;5.85;100.00;102159.00;6008453;23;20027;-74
2022/10/07 04:13:50;;;;;;;3.50;3.40;;;;;;;5.74;100.00;102132.19;6008917;23;20016;-74
2022/10/07 04:16:16;;;;;;;4.13;3.92;;;;;;;5.43;100.00;102085.56;6011436;23;20030;-74
2022/10/07 04:18:44;;;;;;;4.25;4.05;;;;;;;5.91;100.00;102158.97;6005668;23;20022;-73
2022/10/07 04:21:11;;;;;;;4.03;3.83;;;;;;;5.70;100.00;102139.16;6004008;23;20018;-73
2022/10/07 04:23:39;;;;;;;3.63;3.42;;;;;;;5.86;100.00;102165.09;5998533;23;20019;-74
2022/10/07 04:26:11;;;;;;;3.90;3.70;;;;;;;5.86;100.00;102168.56;5998929;23;20023;-74
2022/10/07 04:28:37;;;;;;;3.85;3.67;;;;;;;5.86;100.00;102159.88;5966254;23;20027;-74
2022/10/07 04:31:05;;;;;;;4.30;4.03;;;;;;;5.61;100.00;102131.41;5953518;23;20633;-74
2022/10/07 04:33:32;;;;;;;3.40;3.30;;;;;;;5.87;100.00;102157.25;6002976;23;20040;-74
2022/10/07 04:36:09;;;;;;;4.07;3.88;;;;;;;5.72;100.00;102144.38;5996769;23;20111;-74
2022/10/07 04:38:35;;;;;;;4.45;4.15;;;;;;;5.58;100.00;102114.09;6002336;23;20485;-74
2022/10/07 04:41:05;;;;;;;3.40;3.30;;;;;;;5.84;100.00;102152.06;5995466;23;20035;-75
2022/10/07 04:43:35;;;;;;;3.50;3.40;;;;;;;5.67;100.00;102118.34;5993123;23;20019;-74
2022/10/07 04:46:07;;;;;;;3.47;3.33;;;;;;;5.41;100.00;102084.72;5992619;23;20008;-75
2022/10/07 04:48:34;;;;;;;3.60;3.50;;;;;;;5.84;100.00;102169.47;5998497;23;20025;-74
2022/10/07 04:51:05;;;;;;;3.60;3.40;;;;;;;5.23;100.00;102058.84;5991405;23;20027;-74
2022/10/07 04:53:32;;;;;;;3.97;3.78;;;;;;;5.74;100.00;102146.06;5996577;23;20076;-74
2022/10/07 04:55:59;;;;;;;4.30;4.10;;;;;;;5.51;100.00;102120.25;5988766;23;20019;-76
2022/10/07 04:58:27;;;;;;;3.78;3.58;;;;;;;5.73;100.00;102138.28;5993566;23;20098;-75
2022/10/07 05:00:55;;;;;;;3.60;3.50;;;;;;;5.72;100.00;102134.81;5948855;24;20032;-75
2022/10/07 05:03:24;;;;;;;7.28;3.40;;;;;;;5.61;100.00;102110.59;5988725;23;20035;-74
2022/10/07 05:05:53;;;;;;;3.45;3.35;;;;;;;5.14;100.00;102044.19;5996978;23;20515;-74
2022/10/07 05:08:23;;;;;;;4.80;4.35;;;;;;;5.37;100.00;102078.69;5992203;23;20088;-75
2022/10/07 05:10:57;;;;;;;3.33;3.22;;;;;;;5.70;100.00;102128.75;5951270;24;20036;-75
2022/10/07 05:13:25;;;;;;;3.63;3.45;;;;;;;5.70;100.00;102122.69;5979456;23;20066;-75
2022/10/07 05:15:59;;;;;;;3.58;3.38;;;;;;;5.67;100.00;102126.16;6008016;23;20030;-75
2022/10/07 05:18:27;;;;;;;5.38;4.75;;;;;;;5.63;100.00;102127.06;5990477;23;20023;-76
2022/10/07 05:20:55;;;;;;;3.40;3.30;;;;;;;5.62;100.00;102121.91;5977732;23;20557;-74
2022/10/07 05:23:23;;;;;;;3.83;3.63;;;;;;;4.99;100.00;102048.63;5970863;23;20024;-75
2022/10/07 05:26:03;;;;;;;4.03;3.72;;;;;;;5.62;100.00;102121.91;5996895;23;20027;-75
2022/10/07 05:28:30;;;;;;;3.38;3.28;;;;;;;5.28;100.00;102070.09;5984916;23;20031;-75
2022/10/07 05:31:07;;;;;;;3.40;3.22;;;;;;;5.33;100.00;102087.41;5998064;23;20035;-75
2022/10/07 05:33:34;;;;;;;4.00;3.80;;;;;;;5.40;100.00;102117.72;5994219;23;20542;-76
2022/10/07 05:36:02;;;;;;;3.60;3.42;;;;;;;5.44;100.00;102113.34;5999588;23;20035;-75
2022/10/07 05:38:29;;;;;;;3.83;3.63;;;;;;;5.19;100.00;102078.81;6007964;23;20041;-75
2022/10/07 05:40:58;;;;;;;4.18;3.88;;;;;;;5.28;100.00;102083.97;5995445;23;20651;-75
2022/10/07 05:43:26;;;;;;;3.78;3.58;;;;;;;5.49;100.00;102111.59;5998866;23;20470;-75
2022/10/07 05:46:04;;;;;;;5.78;3.75;;;;;;;5.48;100.00;102112.44;5995424;23;20027;-75
2022/10/07 05:48:32;;;;;;;3.80;3.60;;;;;;;4.95;100.00;102013.09;6000004;23;20694;-75
2022/10/07 05:51:07;;;;;;;3.50;3.38;;;;;;;5.03;100.00;102023.44;5984304;23;20027;-73
2022/10/07 05:53:34;;;;;;;4.15;3.95;;;;;;;5.15;100.00;102046.78;5987671;23;20027;-74
2022/10/07 05:56:08;;;;;;;3.33;3.22;;;;;;;5.44;100.00;102078.66;5997423;23;20403;-69
2022/10/07 05:58:35;;;;;;;4.28;3.97;;;;;;;5.48;100.00;102085.56;5999556;23;20110;-71
2022/10/07 06:01:03;;;;;;;3.35;3.25;;;;;;;5.60;100.00;102094.09;5995819;23;20093;-70
2022/10/07 06:03:36;;;;;;;3.30;3.20;;;;;;;5.64;100.00;102091.50;5974542;23;20027;-71
2022/10/07 06:06:02;;;;;;;3.90;3.70;;;;;;;5.19;100.00;102013.75;5995837;23;20089;-71
2022/10/07 06:08:29;;;;;;;4.05;3.80;;;;;;;5.68;100.00;102091.44;5994642;23;20023;-71
2022/10/07 06:13:50;;;;;;;4.07;3.70;;;;;;;5.70;100.00;102076.66;5997341;23;20012;-70
2022/10/07 06:16:17;;;;;;;4.53;3.75;;;;;;;5.36;100.00;102030.09;5996417;23;20031;-71
2022/10/07 06:18:44;;;;;;;18.38;4.38;;;;;;;5.78;100.00;102087.84;6002984;23;20047;-71
2022/10/07 06:21:11;;;;;;;3.35;3.25;;;;;;;5.69;100.00;102064.53;6005233;23;20015;-71
2022/10/07 06:23:37;;;;;;;3.80;3.50;;;;;;;5.73;100.00;102061.00;6003251;23;20016;-71
2022/10/07 06:26:06;;;;;;;3.35;3.25;;;;;;;5.60;100.00;102029.00;5999517;23;20444;-71
2022/10/07 06:28:37;;;;;;;4.32;4.13;;;;;;;5.90;100.00;102060.81;6001948;23;20032;-70
2022/10/07 06:31:08;;;;;;;4.30;4.10;;;;;;;6.07;100.00;102083.25;5966781;23;20450;-71
2022/10/07 06:33:35;;;;;;;3.90;3.70;;;;;;;6.12;100.00;102078.88;6000598;23;20018;-71
2022/10/07 06:36:04;;;;;;;4.00;3.67;;;;;;;6.20;100.00;102092.66;5999307;23;20034;-71
2022/10/07 06:38:31;;;;;;;4.20;4.00;;;;;;;6.27;100.00;102083.03;5954500;23;20710;-71
2022/10/07 06:41:01;;;;;;;4.22;4.00;;;;;;;6.33;100.00;102089.00;5993243;23;20031;-71
2022/10/07 06:43:29;;;;;;;3.80;3.60;;;;;;;6.41;100.00;102085.47;5971048;23;20031;-71
2022/10/07 06:46:01;;;;;;;4.38;4.07;;;;;;;6.48;100.00;102071.47;6000496;23;20030;-70
2022/10/07 06:48:30;;;;;;;4.10;3.90;;;;;;;6.43;100.00;102044.59;5963178;23;20639;-71
2022/10/07 06:50:57;;;;;;;4.00;3.80;;;;;;;6.63;100.00;102068.66;5993255;23;20023;-71
2022/10/07 06:53:25;;;;;;;5.22;3.67;;;;;;;6.72;100.00;102076.34;5997659;23;20038;-70
2022/10/07 06:55:56;;;;;;;3.95;3.75;;;;;;;6.86;100.00;102067.47;5995925;23;20028;-71
2022/10/07 06:58:24;;;;;;;4.25;3.95;;;;;;;6.83;100.00;102052.72;5996032;23;20366;-70
2022/10/07 07:00:55;;;;;;;4.90;4.20;;;;;;;7.04;100.00;102077.63;6002712;23;20029;-71
2022/10/07 07:03:23;;;;;;;4.05;3.85;;;;;;;7.14;100.00;102087.03;5991944;23;20121;-71
2022/10/07 07:05:50;;;;;;;3.95;3.75;;;;;;;7.30;100.00;102076.38;5977467;23;20011;-72
2022/10/07 07:08:21;;;;;;;3.63;3.53;;;;;;;7.39;100.00;102078.81;5996565;23;20058;-71
2022/10/07 07:10:48;;;;;;;3.67;3.55;;;;;;;7.33;100.00;102058.88;5972513;23;20089;-71
2022/10/07 07:13:15;;;;;;;4.57;4.28;;;;;;;7.57;100.00;102070.66;5969292;23;20070;-72
2022/10/07 07:15:41;;;;;;;4.10;3.90;;;;;;;7.27;100.00;102006.75;6000696;23;20085;-71
2022/10/07 07:18:09;;;;;;;4.60;4.30;;;;;;;7.01;100.00;101928.91;5999365;23;20039;-71
2022/10/07 07:20:37;;;;;;;4.70;4.40;;;;;;;7.90;100.00;102062.25;5992241;23;20074;-71
2022/10/07 07:23:05;;;;;;;5.43;4.45;;;;;;;7.91;100.00;102046.50;6001040;23;20089;-72
2022/10/07 07:25:38;;;;;;;4.78;4.38;;;;;;;8.08;100.00;102068.84;5977473;23;20739;-70
2022/10/07 07:28:06;;;;;;;4.40;4.10;;;;;;;7.80;100.00;102022.34;6003505;23;20030;-70
2022/10/07 07:30:36;;;;;;;4.22;4.03;;;;;;;8.26;100.00;102062.38;5963687;23;20458;-70
2022/10/07 07:33:03;;;;;;;4.70;4.50;;;;;;;7.82;100.00;101973.53;5951156;23;20095;-70
2022/10/07 07:35:31;;;;;;;5.22;4.50;;;;;;;8.51;100.00;102074.09;5986885;23;20066;-70
2022/10/07 07:37:59;;;;;;;5.03;4.10;;;;;;;8.51;100.00;102075.84;5965559;23;20090;-70
2022/10/07 07:40:27;;;;;;;4.63;4.32;;;;;;;8.21;100.00;102002.34;5989515;23;20246;-70
2022/10/07 07:42:54;;;;;;;3.85;3.65;;;;;;;8.84;100.00;102078.63;5996432;23;20544;-71
2022/10/07 07:45:22;;;;;;;4.60;4.30;;;;;;;8.90;100.00;102079.34;5994237;23;20094;-69
2022/10/07 07:47:48;;;;;;;4.88;4.47;;;;;;;9.09;100.00;102071.91;5988794;23;21162;-70
2022/10/07 07:50:19;;;;;;;4.50;4.30;;;;;;;9.24;100.00;102075.94;5993642;23;20031;-70
2022/10/07 07:52:46;;;;;;;4.60;4.40;;;;;;;9.35;100.00;102073.03;5966054;23;20689;-70
2022/10/07 07:55:13;;;;;;;5.15;4.75;;;;;;;9.10;100.00;102023.00;5997657;23;20043;-70
2022/10/07 07:57:41;;;;;;;4.68;4.40;;;;;;;9.16;100.00;102017.63;5968033;23;20084;-70
2022/10/07 08:00:10;;;;;;;5.07;4.78;;;;;;;8.98;100.00;101971.84;5991280;23;20043;-71
2022/10/07 08:02:37;;;;;;;4.50;4.20;;;;;;;9.68;100.00;102071.34;5990123;23;20451;-70
2022/10/07 08:05:03;;;;;;;11.43;4.68;;;;;;;9.76;100.00;102071.09;5991384;23;20054;-71
2022/10/07 08:07:31;;;;;;;5.22;4.72;;;;;;;9.90;100.00;102070.72;5989514;23;20539;-71
2022/10/07 08:09:58;;;;;;;4.22;4.03;;;;;;;9.98;100.00;102048.66;5994526;23;20035;-70
2022/10/07 08:12:24;;;;;;;5.30;4.95;;;;;;;10.17;100.00;102061.25;5999628;23;20082;-70
2022/10/07 08:14:51;;;;;;;5.68;5.18;;;;;;;10.24;100.00;102060.16;5995599;23;20027;-71
2022/10/07 08:17:17;;;;;;;4.97;4.55;;;;;;;9.52;100.00;101923.22;5942204;24;20149;-71
2022/10/07 08:19:43;;;;;;;4.60;4.20;;;;;;;10.36;100.00;102051.09;5986117;23;20606;-70
2022/10/07 08:22:16;;;;;;;4.22;3.97;;;;;;;10.06;100.00;101961.88;5965651;24;20459;-70
2022/10/07 08:24:42;;;;;;;7.40;4.68;;;;;;;10.69;100.00;102056.25;5996303;23;20016;-70
2022/10/07 08:27:09;;;;;;;4.88;4.57;;;;;;;10.30;100.00;101980.44;5990255;23;20019;-71
2022/10/07 08:29:36;;;;;;;4.70;4.30;;;;;;;10.91;100.00;102053.81;5995579;23;20946;-71
2022/10/07 08:32:02;;;;;;;6.50;5.05;;;;;;;10.12;100.00;101901.38;5973118;23;20139;-71
2022/10/07 08:34:29;;;;;;;4.60;4.40;;;;;;;10.26;100.00;101916.66;5998492;23;20824;-71
2022/10/07 08:36:57;;;;;;;14.55;4.90;;;;;;;10.98;100.00;102015.91;5966460;23;20569;-71
2022/10/07 08:39:26;;;;;;;4.97;4.63;;;;;;;10.98;100.00;101985.28;5993840;23;20026;-71
2022/10/07 08:42:14;;;;;;;6.65;4.38;;;;;;;11.49;100.00;102041.38;5999229;23;20071;-71
2022/10/07 08:44:43;;;;;;;4.85;4.63;;;;;;;11.69;100.00;102042.44;5994979;23;20027;-71
2022/10/07 08:47:29;;;;;;;5.63;5.28;;;;;;;11.84;100.00;102033.16;5976591;23;20034;-71
2022/10/07 08:50:05;;;;;;;7.60;4.72;;;;;;;12.02;100.00;102042.19;6000376;23;20027;-71
2022/10/07 08:52:40;;;;;;;4.80;4.60;;;;;;;12.07;100.00;102032.34;5967998;23;20117;-71
2022/10/07 08:55:38;;;;;;;4.88;4.57;;;;;;;12.14;100.00;102025.94;5993545;23;20031;-71
2022/10/07 08:58:42;;;;;;;14.75;4.47;;;;;;;12.29;100.00;102030.63;5981090;23;20050;-71
2022/10/07 09:01:28;;;;;;;6.63;4.30;;;;;;;12.28;100.00;101999.94;5991070;23;20655;-70
2022/10/07 09:04:14;;;;;;;6.10;4.32;;;;;;;12.63;100.00;102021.41;5993379;23;20059;-71
2022/10/07 09:06:57;;;;;;;4.90;4.60;;;;;;;12.70;100.00;102012.34;5963956;24;20011;-71
2022/10/07 09:09:33;;;;;;;5.07;4.65;;;;;;;12.74;100.00;102003.38;5995311;23;20015;-71
2022/10/07 09:12:02;;;;;;;5.63;5.10;;;;;;;12.66;100.00;101976.50;5970098;24;20031;-71
2022/10/07 09:14:37;;;;;;;4.65;4.45;;;;;;;12.94;100.00;102012.28;5999330;23;20027;-71
2022/10/07 09:17:09;;;;;;;4.50;4.25;;;;;;;13.16;100.00;102013.09;5988864;23;20008;-71
2022/10/07 09:19:42;;;;;;;;;;;;;;;13.23;100.00;101999.63;5961973;23;20085;-71
2022/10/07 09:22:34;;;;;;;11.95;7.28;;;;;;;13.36;100.00;101993.81;5987174;23;19911;-71
2022/10/07 09:25:21;;;;;;;5.55;5.18;;;;;;;13.33;100.00;101993.09;5964734;24;20585;-71
2022/10/07 09:27:49;;;;;;;5.72;5.15;;;;;;;13.61;100.00;101994.53;5994195;23;20053;-71
2022/10/07 09:30:15;;;;;;;7.03;4.90;;;;;;;13.73;100.00;101986.06;5968523;24;20031;-71
2022/10/07 09:32:48;;;;;;;8.77;6.00;;;;;;;13.75;97.85;101957.81;5992220;23;20023;-71
2022/10/07 09:35:17;;;;;;;5.78;5.35;;;;;;;14.07;98.25;101984.53;5967487;23;20035;-71
2022/10/07 09:37:55;;;;;;;5.60;5.20;;;;;;;14.28;97.42;101983.53;5999164;23;20418;-72
2022/10/07 09:40:34;;;;;;;5.82;5.15;;;;;;;14.23;96.90;101930.09;5995465;23;20101;-72
2022/10/07 09:43:08;;;;;;;5.15;4.85;;;;;;;14.19;92.94;101911.81;5997381;23;20034;-71
2022/10/07 09:45:35;;;;;;;5.43;5.03;;;;;;;14.71;93.75;101968.31;5997850;23;20482;-71
2022/10/07 09:48:15;;;;;;;5.45;5.05;;;;;;;14.87;92.77;101983.38;6007515;23;20256;-72
2022/10/07 09:50:43;;;;;;;9.13;5.28;;;;;;;14.19;91.22;101840.53;6004999;23;20036;-71
2022/10/07 09:53:25;;;;;;;6.10;5.60;;;;;;;14.80;90.47;101915.91;6002994;23;20027;-72
2022/10/07 09:55:53;;;;;;;5.43;4.88;;;;;;;15.12;88.33;101935.44;6002219;23;20011;-72
2022/10/07 09:58:26;;;;;;;5.43;5.03;;;;;;;15.40;89.52;101966.59;6005312;23;20061;-71
2022/10/07 10:00:55;;;;;;;7.15;5.07;;;;;;;15.22;90.38;101930.53;6004751;23;20027;-71
2022/10/07 10:03:29;;;;;;;5.10;4.80;;;;;;;15.56;88.81;101954.25;6006918;23;20027;-72
2022/10/07 10:06:01;;;;;;;5.90;5.15;;;;;;;15.75;86.32;101954.16;6004823;23;20382;-72
2022/10/07 10:08:39;;;;;;;6.22;5.70;;;;;;;15.84;86.68;101942.22;5998023;23;20027;-71
2022/10/07 10:11:24;;;;;;;5.50;5.13;;;;;;;15.92;87.25;101939.16;5956182;24;20569;-71
2022/10/07 10:13:51;;;;;;;6.47;5.28;;;;;;;16.09;86.34;101933.75;6002528;23;20027;-72
2022/10/07 10:16:23;;;;;;;5.82;5.35;;;;;;;16.11;83.90;101934.53;5998304;23;20475;-72
2022/10/07 10:19:04;;;;;;;13.52;5.40;;;;;;;16.09;84.80;101901.13;5997252;23;20402;-72
2022/10/07 10:21:39;;;;;;;6.30;5.72;;;;;;;16.37;84.25;101907.53;6003691;23;20382;-72
2022/10/07 10:24:12;;;;;;;5.65;5.35;;;;;;;16.70;84.21;101926.78;5971218;23;20429;-71
2022/10/07 10:26:56;;;;;;;5.50;5.10;;;;;;;16.61;80.50;101876.94;5994028;23;20446;-71
2022/10/07 10:29:44;;;;;;;6.07;5.55;;;;;;;16.77;78.24;101907.84;6004843;23;20621;-73
2022/10/07 10:32:29;;;;;;;8.57;5.32;;;;;;;16.83;78.17;101897.75;6002193;23;20039;-70
2022/10/07 10:35:13;;;;;;;7.97;4.85;;;;;;;16.91;76.76;101894.66;6004746;23;20022;-70
2022/10/07 10:37:39;;;;;;;6.47;5.30;;;;;;;16.92;74.78;101896.38;6001742;23;20015;-71
2022/10/07 10:40:24;;;;;;;6.10;5.55;;;;;;;17.08;75.85;101897.16;5971429;23;20015;-72
2022/10/07 10:43:21;;;;;;;5.75;5.20;;;;;;;17.37;74.71;101893.66;5967252;23;20038;-70
2022/10/07 10:46:11;;;;;;;10.55;5.43;;;;;;;17.28;73.74;101832.28;5959406;24;20063;-71
2022/10/07 10:49:05;;;;;;;5.43;5.13;;;;;;;17.74;73.94;101878.97;5994254;23;20046;-70
2022/10/07 10:51:48;;;;;;;5.95;5.50;;;;;;;17.87;72.01;101879.03;5997488;23;20682;-71
2022/10/07 10:54:49;;;;;;;5.45;5.15;;;;;;;17.75;70.58;101867.38;5938896;24;20027;-71
2022/10/07 10:58:00;;;;;;;6.68;5.35;;;;;;;17.88;71.10;101865.66;5979166;23;20086;-71
2022/10/07 11:00:39;;;;;;;9.15;7.60;;;;;;;17.92;69.96;101839.75;5847037;24;20090;-70
2022/10/07 11:03:24;;;;;;;10.98;5.32;;;;;;;18.17;69.55;101852.28;5875176;24;20025;-70
2022/10/07 11:05:54;;;;;;;5.95;5.30;;;;;;;18.34;69.55;101843.19;5960474;23;20023;-71
2022/10/07 11:08:26;;;;;;;5.15;4.95;;;;;;;18.00;68.15;101848.09;5985185;23;20089;-70
2022/10/07 11:10:59;;;;;;;7.72;5.70;;;;;;;18.25;68.75;101847.31;5998062;23;20024;-71
2022/10/07 11:13:42;;;;;;;5.40;5.10;;;;;;;18.32;66.08;101818.50;5965458;23;20023;-71
2022/10/07 11:16:22;;;;;;;6.65;5.40;;;;;;;18.44;66.89;101815.06;5998901;23;20098;-70
2022/10/07 11:19:04;;;;;;;5.30;5.00;;;;;;;18.53;66.55;101830.38;5992062;23;20026;-71
2022/10/07 11:21:39;;;;;;;6.95;5.13;;;;;;;18.60;66.49;101817.53;5971254;24;20183;-71
2022/10/07 11:24:18;;;;;;;5.60;5.20;;;;;;;18.66;63.97;101817.09;5948880;24;20428;-71
2022/10/07 11:27:01;;;;;;;5.93;5.38;;;;;;;18.71;64.67;101771.56;5967339;23;20099;-71
2022/10/07 11:29:27;;;;;;;;;;;;;;;18.99;62.86;101802.44;5984690;23;20036;-71
2022/10/07 11:32:06;;;;;;;6.35;5.75;;;;;;;19.12;62.95;101803.28;5970231;24;19904;-71
2022/10/07 11:34:52;;;;;;;6.30;5.68;;;;;;;18.90;62.40;101768.50;5979428;23;20086;-71
2022/10/07 11:37:26;;;;;;;8.48;5.40;;;;;;;19.19;61.99;101800.19;5966466;23;20039;-71
2022/10/07 11:39:52;;;;;;;6.22;5.22;;;;;;;19.07;61.38;101754.84;5998010;23;20035;-71
2022/10/07 11:42:23;;;;;;;8.82;5.43;;;;;;;19.13;59.18;101789.00;5964265;24;20370;-71
2022/10/07 11:45:01;;;;;;;7.60;5.40;;;;;;;18.87;60.03;101755.44;5993403;23;20726;-72
2022/10/07 11:47:35;;;;;;;11.20;5.90;;;;;;;18.65;60.10;101780.81;5979332;23;20496;-71
2022/10/07 11:50:25;;;;;;;5.00;4.80;;;;;;;18.87;62.37;101780.22;5989237;23;20027;-71
2022/10/07 11:52:55;;;;;;;5.30;5.00;;;;;;;18.85;60.09;101766.16;5992835;23;20018;-71